createdAt,value
2022-11-04T00:03:09.084Z,1.30
2022-11-04T00:08:25.773Z,1.55
2022-11-04T00:13:30.033Z,1.20
2022-11-04T00:18:31.486Z,1.20
2022-11-04T00:23:51.358Z,0.93
2022-11-04T00:28:54.220Z,0.85
2022-11-04T00:33:57.259Z,1.33
2022-11-04T00:38:58.658Z,1.40
2022-11-04T00:44:01.325Z,1.20
2022-11-04T00:49:02.706Z,1.00
2022-11-04T00:54:04.147Z,1.20
2022-11-04T00:59:08.032Z,1.10
2022-11-04T01:04:11.761Z,1.38
2022-11-04T01:09:13.339Z,1.10
2022-11-04T01:14:14.730Z,1.25
2022-11-04T01:19:16.356Z,1.08
2022-11-04T01:24:17.794Z,1.23
2022-11-04T01:29:19.163Z,0.77
2022-11-04T01:34:20.562Z,1.05
2022-11-04T01:39:22.317Z,1.00
2022-11-04T01:44:42.120Z,1.17
2022-11-04T01:49:44.667Z,1.05
2022-11-04T01:54:47.486Z,1.30
2022-11-04T01:59:48.882Z,1.10
2022-11-04T02:04:50.248Z,1.20
2022-11-04T02:09:51.620Z,0.90
2022-11-04T02:14:53.613Z,0.95
2022-11-04T02:20:13.634Z,0.95
2022-11-04T02:25:31.838Z,1.17
2022-11-04T02:30:36.302Z,1.13
2022-11-04T02:35:56.485Z,1.00
2022-11-04T02:46:05.201Z,1.20
2022-11-04T02:51:09.624Z,1.10
2022-11-04T02:56:11.795Z,1.02
2022-11-04T03:01:14.809Z,1.90
2022-11-04T03:06:19.115Z,1.30
2022-11-04T03:11:22.273Z,0.98
2022-11-04T03:16:27.008Z,0.63
2022-11-04T03:21:29.188Z,0.90
2022-11-04T03:26:49.562Z,0.63
2022-11-04T03:31:57.630Z,0.80
2022-11-04T03:36:59.391Z,0.65
2022-11-04T03:42:03.447Z,0.88
2022-11-04T03:47:04.884Z,0.57
2022-11-04T03:52:06.278Z,0.57
2022-11-04T03:57:10.738Z,0.93
2022-11-04T04:02:19.643Z,0.80
2022-11-04T04:07:29.566Z,0.70
2022-11-04T04:17:40.993Z,0.98
2022-11-04T04:22:51.424Z,0.95
2022-11-04T04:27:54.146Z,0.70
2022-11-04T04:32:57.733Z,0.50
2022-11-04T04:38:21.377Z,0.77
2022-11-04T04:43:41.605Z,0.73
2022-11-04T04:53:44.187Z,0.75
2022-11-04T04:58:45.575Z,0.60
2022-11-04T05:03:46.945Z,0.60
2022-11-04T05:08:48.271Z,0.88
2022-11-04T05:13:49.656Z,1.02
2022-11-04T05:18:53.771Z,1.20
2022-11-04T05:23:55.158Z,1.48
2022-11-04T05:28:56.489Z,1.20
2022-11-04T05:33:59.742Z,1.17
2022-11-04T05:39:01.440Z,1.30
2022-11-04T05:44:04.004Z,1.40
2022-11-04T05:49:05.667Z,1.70
2022-11-04T05:54:06.992Z,1.30
2022-11-04T05:59:08.301Z,1.20
2022-11-04T06:04:14.221Z,1.27
2022-11-04T06:09:15.677Z,1.40
2022-11-04T06:14:18.769Z,1.40
2022-11-04T06:19:20.354Z,1.52
2022-11-04T06:24:21.715Z,1.55
2022-11-04T06:29:23.267Z,1.40
2022-11-04T06:34:24.732Z,1.50
2022-11-04T06:39:26.109Z,1.52
2022-11-04T06:44:27.501Z,1.63
2022-11-04T06:49:32.057Z,1.70
2022-11-04T06:54:34.870Z,1.40
2022-11-04T06:59:36.238Z,1.92
2022-11-04T07:04:37.634Z,1.67
2022-11-04T07:09:39.063Z,1.73
2022-11-04T07:14:40.448Z,1.70
2022-11-04T07:19:41.892Z,1.90
2022-11-04T07:24:43.656Z,1.80
2022-11-04T07:29:44.980Z,2.00
2022-11-04T07:34:46.392Z,2.03
2022-11-04T07:39:48.900Z,1.83
2022-11-04T07:44:50.255Z,2.10
2022-11-04T07:49:51.750Z,1.80
2022-11-04T07:54:53.182Z,2.03
2022-11-04T07:59:54.551Z,2.28
2022-11-04T08:04:55.908Z,2.58
2022-11-04T08:09:57.348Z,2.30
2022-11-04T08:14:59.680Z,3.25
2022-11-04T08:20:01.047Z,3.28
2022-11-04T08:25:13.906Z,3.08
2022-11-04T08:30:23.139Z,3.10
2022-11-04T08:35:25.233Z,2.42
2022-11-04T08:40:28.851Z,2.60
2022-11-04T08:45:33.638Z,2.40
2022-11-04T08:50:35.451Z,2.70
2022-11-04T08:55:36.871Z,2.60
2022-11-04T09:00:41.022Z,2.50
2022-11-04T09:11:08.162Z,2.50
2022-11-04T09:22:22.286Z,2.33
2022-11-04T09:27:48.247Z,2.38
2022-11-04T09:32:52.787Z,2.55
2022-11-04T09:37:54.741Z,2.63
2022-11-04T09:43:06.045Z,2.58
2022-11-04T09:48:08.914Z,2.97
2022-11-04T09:53:18.240Z,2.58
2022-11-04T09:58:19.834Z,1.90
2022-11-04T10:03:21.502Z,1.80
2022-11-04T10:08:37.946Z,1.60
2022-11-04T10:14:00.460Z,2.58
2022-11-04T10:19:20.083Z,2.10
2022-11-04T10:24:31.812Z,1.98
2022-11-04T10:29:37.456Z,1.95
2022-11-04T10:34:48.135Z,1.90
2022-11-04T10:39:49.759Z,1.92
2022-11-04T10:44:52.432Z,1.60
2022-11-04T10:50:27.709Z,1.67
2022-11-04T10:55:47.037Z,1.83
2022-11-04T11:00:49.139Z,1.60
2022-11-04T11:05:53.958Z,1.15
2022-11-04T11:10:56.587Z,1.30
2022-11-04T11:16:05.562Z,1.35
2022-11-04T11:21:11.614Z,1.50
2022-11-04T11:26:29.620Z,1.15
2022-11-04T11:31:38.342Z,1.35
2022-11-04T11:36:40.140Z,1.38
2022-11-04T11:42:00.200Z,1.30
2022-11-04T11:52:21.646Z,1.25
2022-11-04T11:57:25.817Z,1.40
2022-11-04T12:02:31.567Z,1.90
2022-11-04T12:13:14.477Z,1.50
2022-11-04T12:23:44.365Z,1.20
2022-11-04T12:28:52.079Z,1.30
2022-11-04T12:33:56.336Z,1.33
2022-11-04T12:39:10.396Z,1.75
2022-11-04T12:44:30.573Z,2.20
2022-11-04T12:49:38.206Z,2.13
2022-11-04T12:54:45.746Z,2.40
2022-11-04T13:00:06.418Z,2.50
2022-11-04T13:05:13.719Z,2.10
2022-11-04T13:10:35.298Z,2.20
2022-11-04T13:15:43.043Z,1.50
2022-11-04T13:20:59.234Z,1.35
2022-11-04T13:26:06.126Z,1.73
2022-11-04T13:31:12.198Z,1.55
2022-11-04T13:36:22.420Z,1.50
2022-11-04T13:41:42.879Z,1.58
2022-11-04T13:46:48.601Z,1.50
2022-11-04T13:52:01.438Z,1.55
2022-11-04T13:57:18.864Z,1.70
2022-11-04T14:02:20.343Z,1.52
2022-11-04T14:07:41.661Z,1.30
2022-11-04T14:12:43.186Z,1.50
2022-11-04T14:17:44.592Z,1.48
2022-11-04T14:22:54.660Z,1.52
2022-11-04T14:28:00.329Z,1.52
2022-11-04T14:33:04.136Z,1.45
2022-11-04T14:38:07.346Z,1.60
2022-11-04T14:43:17.632Z,1.50
2022-11-04T14:48:20.218Z,1.70
2022-11-04T14:53:41.880Z,2.35
2022-11-04T14:58:55.982Z,1.55
2022-11-04T15:04:13.291Z,1.42
2022-11-04T15:09:28.224Z,1.40
2022-11-04T15:14:31.967Z,1.63
2022-11-04T15:19:34.583Z,1.50
2022-11-04T15:24:36.358Z,1.42
2022-11-04T15:29:37.736Z,2.03
2022-11-04T15:34:39.175Z,2.40
2022-11-04T15:39:43.579Z,2.00
2022-11-04T15:44:47.447Z,1.65
2022-11-04T15:49:50.386Z,1.55
2022-11-04T15:54:53.368Z,1.80
2022-11-04T15:59:57.614Z,2.72
2022-11-04T16:05:13.881Z,3.33
2022-11-04T16:10:35.130Z,1.98
2022-11-04T16:15:38.602Z,2.17
2022-11-04T16:20:44.969Z,2.80
2022-11-04T16:25:46.473Z,3.30
2022-11-04T16:31:01.797Z,2.33
2022-11-04T16:36:20.044Z,2.45
2022-11-04T16:41:29.450Z,2.78
2022-11-04T16:46:40.818Z,2.17
2022-11-04T16:51:42.739Z,2.83
2022-11-04T16:56:46.805Z,3.63
2022-11-04T17:01:48.248Z,3.40
2022-11-04T17:06:49.674Z,3.47
2022-11-04T17:11:51.143Z,3.22
2022-11-04T17:16:52.548Z,3.42
2022-11-04T17:21:54.189Z,2.38
2022-11-04T17:26:55.591Z,4.07
2022-11-04T17:31:57.210Z,3.72
2022-11-04T17:36:59.099Z,3.45
2022-11-04T17:42:19.322Z,3.30
2022-11-04T17:52:24.174Z,3.17
2022-11-04T17:57:25.549Z,3.65
2022-11-04T18:02:27.032Z,3.38
2022-11-04T18:07:28.917Z,3.95
2022-11-04T18:12:41.269Z,3.90
2022-11-04T18:17:43.877Z,4.88
2022-11-04T18:22:45.263Z,5.15
2022-11-04T18:27:48.912Z,4.80
2022-11-04T18:32:50.339Z,4.85
2022-11-04T18:37:51.718Z,4.00
2022-11-04T18:42:53.179Z,3.95
2022-11-04T18:47:54.494Z,3.80
2022-11-04T18:52:55.948Z,3.63
2022-11-04T18:57:57.371Z,3.15
2022-11-04T19:02:58.963Z,3.35
2022-11-04T19:08:00.418Z,3.10
2022-11-04T19:13:21.017Z,3.42
2022-11-04T19:18:22.700Z,3.53
2022-11-04T19:23:24.092Z,3.28
2022-11-04T19:28:40.412Z,3.28
2022-11-04T19:33:47.388Z,3.60
2022-11-04T19:38:51.421Z,4.63
2022-11-04T19:43:52.809Z,5.00
2022-11-04T19:48:55.886Z,4.75
2022-11-04T19:53:57.329Z,6.85
2022-11-04T19:59:05.966Z,5.15
2022-11-04T20:04:07.593Z,2.95
2022-11-04T20:09:10.995Z,2.67
2022-11-04T20:14:12.521Z,2.78
2022-11-04T20:19:19.861Z,2.47
2022-11-04T20:29:26.605Z,2.10
2022-11-04T20:34:32.667Z,2.03
2022-11-04T20:39:34.337Z,1.70
2022-11-04T20:44:35.747Z,1.65
2022-11-04T20:49:39.353Z,2.17
2022-11-04T20:54:40.711Z,2.42
2022-11-04T20:59:42.081Z,3.63
2022-11-04T21:04:43.441Z,2.47
2022-11-04T21:09:44.903Z,2.50
2022-11-04T21:14:47.767Z,2.10
2022-11-04T21:19:53.730Z,2.50
2022-11-04T21:24:55.106Z,2.78
2022-11-04T21:29:56.556Z,2.92
2022-11-04T21:34:57.915Z,2.85
2022-11-04T21:39:59.344Z,3.50
2022-11-04T21:45:00.735Z,2.25
2022-11-04T21:50:02.153Z,2.47
2022-11-04T21:55:03.803Z,1.65
2022-11-04T22:00:06.285Z,1.88
2022-11-04T22:05:08.304Z,1.50
2022-11-04T22:10:09.779Z,1.40
2022-11-04T22:15:11.190Z,1.60
2022-11-04T22:20:15.251Z,1.50
2022-11-04T22:25:17.780Z,1.50
2022-11-04T22:30:21.757Z,2.13
2022-11-04T22:35:23.474Z,1.45
2022-11-04T22:40:25.003Z,1.63
2022-11-04T22:45:26.390Z,1.60
2022-11-04T22:50:27.790Z,2.15
2022-11-04T22:55:29.283Z,1.70
2022-11-04T23:00:30.882Z,1.80
2022-11-04T23:05:32.432Z,1.80
2022-11-04T23:10:52.311Z,2.05
2022-11-04T23:16:32.065Z,1.80
2022-11-04T23:21:52.306Z,2.00
2022-11-04T23:31:54.995Z,2.30
2022-11-04T23:37:14.819Z,2.35
2022-11-04T23:42:21.003Z,1.92
2022-11-04T23:47:41.121Z,2.08
2022-11-04T23:53:00.996Z,1.88
2022-11-04T23:58:20.855Z,1.77
